Aultman, Pennsylvania
Current Conditions -  °F | °C
As of 9:35 PM on Saturday 22 Nov 2014 (Local Time) from KIDI Reporting Station
Overcast Overcast  
Wind Chill:   Ceiling: 6500
Heat Index:   Visibility: 10mi
Dew Point:   Wind: 6mph
Humidity: 61%   Direction: 230°SW
Pressure: 30.15"   Gusts: NA
Location:  40.56°N, 79.26°W
Report Text: KIDI 230235Z AUTO 23005KT 10SM BKN065 OVC085 07/00 A3015 RMK A01
Loading
Personal Weather Stations






























Interactive Weather Map New forecast layout! Learn more

10-Day Weather Forecast

Advertisements
Track Severe Weather on mobile